createdAt,value
2022-11-25T00:01:33.434Z,1.90
2022-11-25T00:04:00.464Z,1.90
2022-11-25T00:06:31.981Z,1.90
2022-11-25T00:09:10.035Z,1.90
2022-11-25T00:11:37.714Z,1.90
2022-11-25T00:14:06.916Z,1.80
2022-11-25T00:16:33.693Z,1.80
2022-11-25T00:19:00.510Z,1.80
2022-11-25T00:21:29.616Z,1.90
2022-11-25T00:24:00.750Z,1.90
2022-11-25T00:26:28.346Z,1.90
2022-11-25T00:28:57.715Z,2.00
2022-11-25T00:31:26.004Z,2.00
2022-11-25T00:33:52.842Z,1.90
2022-11-25T00:36:23.486Z,2.00
2022-11-25T00:38:59.460Z,2.00
2022-11-25T00:41:45.404Z,1.90
2022-11-25T00:44:32.001Z,2.50
2022-11-25T00:46:58.828Z,1.90
2022-11-25T00:49:25.581Z,1.90
2022-11-25T00:51:52.272Z,1.80
2022-11-25T00:54:19.262Z,1.90
2022-11-25T00:56:46.010Z,1.90
2022-11-25T00:59:12.720Z,1.90
2022-11-25T01:01:39.492Z,1.90
2022-11-25T01:04:06.410Z,2.00
2022-11-25T01:06:33.665Z,2.00
2022-11-25T01:09:02.920Z,2.00
2022-11-25T01:11:29.667Z,1.90
2022-11-25T01:14:00.790Z,1.80
2022-11-25T01:16:30.878Z,1.90
2022-11-25T01:19:00.471Z,1.90
2022-11-25T01:21:29.091Z,1.90
2022-11-25T01:23:55.819Z,1.90
2022-11-25T01:26:23.733Z,2.00
2022-11-25T01:28:54.028Z,2.00
2022-11-25T01:31:21.819Z,1.90
2022-11-25T01:33:52.244Z,2.00
2022-11-25T01:36:21.549Z,2.00
2022-11-25T01:38:51.054Z,2.00
2022-11-25T01:41:17.866Z,2.00
2022-11-25T01:43:44.573Z,2.00
2022-11-25T01:46:21.347Z,2.00
2022-11-25T01:48:50.304Z,3.00
2022-11-25T01:51:41.120Z,2.00
2022-11-25T01:54:08.302Z,2.00
2022-11-25T01:56:36.665Z,2.00
2022-11-25T01:59:03.357Z,2.00
2022-11-25T02:01:32.498Z,2.00
2022-11-25T02:03:59.253Z,2.00
2022-11-25T02:06:40.605Z,2.10
2022-11-25T02:09:07.982Z,3.20
2022-11-25T02:11:38.884Z,2.10
2022-11-25T02:14:05.601Z,2.10
2022-11-25T02:16:34.666Z,2.10
2022-11-25T02:19:03.583Z,2.10
2022-11-25T02:21:34.028Z,2.10
2022-11-25T02:24:07.509Z,2.10
2022-11-25T02:26:34.205Z,2.10
2022-11-25T02:29:00.921Z,2.00
2022-11-25T02:31:29.878Z,2.00
2022-11-25T02:33:56.617Z,1.90
2022-11-25T02:36:23.328Z,1.90
2022-11-25T02:38:57.922Z,1.90
2022-11-25T02:41:36.039Z,1.90
2022-11-25T02:44:02.881Z,1.90
2022-11-25T02:46:29.794Z,2.00
2022-11-25T02:49:12.712Z,2.00
2022-11-25T02:51:41.303Z,2.00
2022-11-25T02:54:08.156Z,2.10
2022-11-25T02:56:35.424Z,2.10
2022-11-25T02:59:04.730Z,2.10
2022-11-25T03:01:35.202Z,2.10
2022-11-25T03:04:04.324Z,2.10
2022-11-25T03:06:31.200Z,2.00
2022-11-25T03:08:57.990Z,2.00
2022-11-25T03:11:44.770Z,2.10
2022-11-25T03:14:11.516Z,2.10
2022-11-25T03:16:38.344Z,2.00
2022-11-25T03:19:05.213Z,2.00
2022-11-25T03:21:31.928Z,2.20
2022-11-25T03:24:01.004Z,1.90
2022-11-25T03:26:27.713Z,1.90
2022-11-25T03:28:54.672Z,1.90
2022-11-25T03:31:21.487Z,1.90
2022-11-25T03:33:50.360Z,1.90
2022-11-25T03:36:17.124Z,1.90
2022-11-25T03:38:43.809Z,1.90
2022-11-25T03:41:10.502Z,1.90
2022-11-25T03:43:37.249Z,1.80
2022-11-25T03:46:03.988Z,1.90
2022-11-25T03:48:32.033Z,1.90
2022-11-25T03:50:58.757Z,2.00
2022-11-25T03:53:25.516Z,1.90
2022-11-25T03:55:54.333Z,2.00
2022-11-25T03:58:21.018Z,2.00
2022-11-25T04:00:47.722Z,2.00
2022-11-25T04:03:14.482Z,1.90
2022-11-25T04:05:41.796Z,1.90
2022-11-25T04:08:08.535Z,2.00
2022-11-25T04:10:37.559Z,2.00
2022-11-25T04:13:06.767Z,2.00
2022-11-25T04:15:33.531Z,2.00
2022-11-25T04:18:00.251Z,1.90
2022-11-25T04:20:29.237Z,1.90
2022-11-25T04:22:55.979Z,1.90
2022-11-25T04:25:24.887Z,1.90
2022-11-25T04:27:51.883Z,1.90
2022-11-25T04:30:18.743Z,1.90
2022-11-25T04:32:47.933Z,1.90
2022-11-25T04:35:14.624Z,1.80
2022-11-25T04:37:43.692Z,1.80
2022-11-25T04:40:13.017Z,1.80
2022-11-25T04:42:39.856Z,1.80
2022-11-25T04:45:33.426Z,1.90
2022-11-25T04:48:00.177Z,1.90
2022-11-25T04:50:31.918Z,1.90
2022-11-25T04:53:01.133Z,1.90
2022-11-25T04:55:27.875Z,2.00
2022-11-25T04:57:56.761Z,1.90
2022-11-25T05:00:26.196Z,1.90
2022-11-25T05:02:55.370Z,2.00
2022-11-25T05:05:22.166Z,2.00
2022-11-25T05:07:48.931Z,1.90
2022-11-25T05:10:15.648Z,2.00
2022-11-25T05:12:42.383Z,2.20
2022-11-25T05:15:09.716Z,2.00
2022-11-25T05:17:36.658Z,2.00
2022-11-25T05:20:05.616Z,2.10
2022-11-25T05:22:32.966Z,2.10
2022-11-25T05:24:59.704Z,2.10
2022-11-25T05:27:26.753Z,2.00
2022-11-25T05:29:56.119Z,2.00
2022-11-25T05:32:23.237Z,2.00
2022-11-25T05:34:49.912Z,2.00
2022-11-25T05:37:24.159Z,2.10
2022-11-25T05:39:53.877Z,2.00
2022-11-25T05:42:20.596Z,2.00
2022-11-25T05:44:47.296Z,2.10
2022-11-25T05:47:14.006Z,2.00
2022-11-25T05:49:40.775Z,2.00
2022-11-25T05:52:07.544Z,2.90
2022-11-25T05:54:36.856Z,1.90
2022-11-25T05:57:03.718Z,1.90
2022-11-25T05:59:30.464Z,1.80
2022-11-25T06:01:57.183Z,2.40
2022-11-25T06:04:23.953Z,1.90
2022-11-25T06:06:50.649Z,1.90
2022-11-25T06:09:19.580Z,2.60
2022-11-25T06:11:48.661Z,1.90
2022-11-25T06:14:17.822Z,1.90
2022-11-25T06:16:44.597Z,1.90
2022-11-25T06:19:11.302Z,1.90
2022-11-25T06:21:37.983Z,1.90
2022-11-25T06:24:04.941Z,1.90
2022-11-25T06:26:31.623Z,1.90
2022-11-25T06:29:00.773Z,1.90
2022-11-25T06:31:27.650Z,1.90
2022-11-25T06:33:54.590Z,1.90
2022-11-25T06:36:21.857Z,2.50
2022-11-25T06:38:52.939Z,2.00
2022-11-25T06:41:20.208Z,2.00
2022-11-25T06:43:46.952Z,2.00
2022-11-25T06:46:19.678Z,2.00
2022-11-25T06:48:49.675Z,2.00
2022-11-25T06:51:19.095Z,2.00
2022-11-25T06:53:45.909Z,2.10
2022-11-25T06:56:17.764Z,2.10
2022-11-25T06:58:47.263Z,2.00
2022-11-25T07:01:17.028Z,2.10
2022-11-25T07:03:44.094Z,2.00
2022-11-25T07:06:12.434Z,2.10
2022-11-25T07:08:39.179Z,2.10
2022-11-25T07:11:18.829Z,2.10
2022-11-25T07:13:46.076Z,2.10
2022-11-25T07:16:12.922Z,2.10
2022-11-25T07:18:42.111Z,2.10
2022-11-25T07:21:10.299Z,2.20
2022-11-25T07:23:37.353Z,2.20
2022-11-25T07:26:14.309Z,2.20
2022-11-25T07:28:41.212Z,2.20
2022-11-25T07:31:24.239Z,2.20
2022-11-25T07:33:57.311Z,2.20
2022-11-25T07:36:26.912Z,2.10
2022-11-25T07:38:53.630Z,2.00
2022-11-25T07:41:23.830Z,2.00
2022-11-25T07:43:52.675Z,2.00
2022-11-25T07:46:26.789Z,2.00
2022-11-25T07:48:55.339Z,2.00
2022-11-25T07:51:24.179Z,2.00
2022-11-25T07:53:51.124Z,2.10
2022-11-25T07:56:22.637Z,2.10
2022-11-25T07:58:51.644Z,2.10
2022-11-25T08:01:19.073Z,2.10
2022-11-25T08:03:46.781Z,2.20
2022-11-25T08:06:15.051Z,3.40
2022-11-25T08:08:42.398Z,2.20
2022-11-25T08:11:13.779Z,2.20
2022-11-25T08:13:42.976Z,2.20
2022-11-25T08:16:10.441Z,2.20
2022-11-25T08:18:37.181Z,2.30
2022-11-25T08:21:05.440Z,2.30
2022-11-25T08:23:32.721Z,2.30
2022-11-25T08:26:07.192Z,2.30
2022-11-25T08:28:36.553Z,2.30
2022-11-25T08:31:07.679Z,2.20
2022-11-25T08:33:34.439Z,2.30
2022-11-25T08:36:04.159Z,2.20
2022-11-25T08:38:30.964Z,2.20
2022-11-25T08:40:57.830Z,2.20
2022-11-25T08:43:29.243Z,2.30
2022-11-25T08:45:56.578Z,2.30
2022-11-25T08:48:23.567Z,2.30
2022-11-25T08:50:53.062Z,2.50
2022-11-25T08:53:20.135Z,2.40
2022-11-25T08:55:46.788Z,2.40
2022-11-25T08:58:13.563Z,2.50
2022-11-25T09:00:41.233Z,2.50
2022-11-25T09:03:08.144Z,2.50
2022-11-25T09:05:36.210Z,2.50
2022-11-25T09:08:03.715Z,2.50
2022-11-25T09:10:30.762Z,2.50
2022-11-25T09:13:00.261Z,2.50
2022-11-25T09:15:27.187Z,2.50
2022-11-25T09:18:03.459Z,2.50
2022-11-25T09:20:30.210Z,2.50
2022-11-25T09:23:01.135Z,2.60
2022-11-25T09:25:28.178Z,2.60
2022-11-25T09:27:57.733Z,2.60
2022-11-25T09:30:24.833Z,2.60
2022-11-25T09:32:52.677Z,2.50
2022-11-25T09:35:19.536Z,4.00
2022-11-25T09:37:48.734Z,2.60
2022-11-25T09:40:26.431Z,2.60
2022-11-25T09:43:27.487Z,2.70
2022-11-25T09:46:35.583Z,2.70
2022-11-25T09:49:07.888Z,2.70
2022-11-25T09:51:57.603Z,2.70
2022-11-25T09:54:30.605Z,2.60
2022-11-25T09:57:18.716Z,2.60
2022-11-25T09:59:51.908Z,2.60
2022-11-25T10:02:40.056Z,2.60
2022-11-25T10:05:19.365Z,2.70
2022-11-25T10:07:51.073Z,2.70
2022-11-25T10:10:26.014Z,2.70
2022-11-25T10:12:53.815Z,2.80
2022-11-25T10:15:27.535Z,4.10
2022-11-25T10:18:03.227Z,2.60
2022-11-25T10:23:15.994Z,2.80
2022-11-25T10:25:46.127Z,2.80
2022-11-25T10:28:23.841Z,2.70
2022-11-25T10:33:34.527Z,2.80
2022-11-25T10:36:06.118Z,2.90
2022-11-25T10:38:41.974Z,3.00
2022-11-25T10:41:15.913Z,2.90
2022-11-25T10:43:42.784Z,2.90
2022-11-25T10:46:49.682Z,2.90
2022-11-25T10:49:24.876Z,2.90
2022-11-25T10:51:51.634Z,2.80
2022-11-25T10:54:28.309Z,2.90
2022-11-25T10:56:59.796Z,2.90
2022-11-25T10:59:37.688Z,2.60
2022-11-25T11:02:19.341Z,3.00
2022-11-25T11:04:56.445Z,3.00
2022-11-25T11:07:23.622Z,3.00
2022-11-25T11:09:50.639Z,3.00
2022-11-25T11:12:24.611Z,3.10
2022-11-25T11:15:14.214Z,3.10
2022-11-25T11:17:43.012Z,3.00
2022-11-25T11:20:09.658Z,3.00
2022-11-25T11:22:39.299Z,3.00
2022-11-25T11:25:30.244Z,3.10
2022-11-25T11:27:57.222Z,3.00
2022-11-25T11:30:31.133Z,3.10
2022-11-25T11:33:28.116Z,3.10
2022-11-25T11:35:58.311Z,3.10
2022-11-25T11:38:30.812Z,3.00
2022-11-25T11:41:08.386Z,3.10
2022-11-25T11:43:56.570Z,3.10
2022-11-25T11:46:49.249Z,3.10
2022-11-25T11:49:30.718Z,3.10
2022-11-25T11:52:31.152Z,3.00
2022-11-25T11:55:40.604Z,3.00
2022-11-25T11:58:19.243Z,3.00
2022-11-25T12:01:15.477Z,3.00
2022-11-25T12:03:53.184Z,3.10
2022-11-25T12:08:52.816Z,3.10
2022-11-25T12:11:32.833Z,3.20
2022-11-25T12:14:20.093Z,2.90
2022-11-25T12:16:48.596Z,3.10
2022-11-25T12:19:30.008Z,4.30
2022-11-25T12:22:03.910Z,3.20
2022-11-25T12:24:54.374Z,3.10
2022-11-25T12:27:23.960Z,3.20
2022-11-25T12:29:55.908Z,3.20
2022-11-25T12:32:50.504Z,3.20
2022-11-25T12:35:37.422Z,3.20
2022-11-25T12:38:18.216Z,3.20
2022-11-25T12:40:50.232Z,3.20
2022-11-25T12:43:44.971Z,3.20
2022-11-25T12:46:34.549Z,3.20
2022-11-25T12:49:01.423Z,3.20
2022-11-25T12:51:41.569Z,3.10
2022-11-25T12:54:08.248Z,3.20
2022-11-25T12:57:01.502Z,3.10
2022-11-25T12:59:43.562Z,3.20
2022-11-25T13:02:45.311Z,3.20
2022-11-25T13:05:51.944Z,3.20
2022-11-25T13:08:56.365Z,3.20
2022-11-25T13:12:01.246Z,3.20
2022-11-25T13:14:49.805Z,3.10
2022-11-25T13:17:17.221Z,3.20
2022-11-25T13:19:44.294Z,3.20
2022-11-25T13:22:29.838Z,3.20
2022-11-25T13:24:57.724Z,3.10
2022-11-25T13:27:33.383Z,3.00
2022-11-25T13:30:02.576Z,3.10
2022-11-25T13:32:31.381Z,3.10
2022-11-25T13:35:24.564Z,3.10
2022-11-25T13:37:51.350Z,3.10
2022-11-25T13:40:31.058Z,3.10
2022-11-25T13:43:00.351Z,3.10
2022-11-25T13:45:30.994Z,3.10
2022-11-25T13:48:22.884Z,3.10
2022-11-25T13:53:37.949Z,3.10
2022-11-25T13:56:28.842Z,3.20
2022-11-25T13:59:10.617Z,3.10
2022-11-25T14:01:52.897Z,3.20
2022-11-25T14:04:42.531Z,3.20
2022-11-25T14:07:20.034Z,3.20
2022-11-25T14:10:08.978Z,3.20
2022-11-25T14:15:21.384Z,3.10
2022-11-25T14:17:54.203Z,2.80
2022-11-25T14:20:39.555Z,2.90
2022-11-25T14:23:31.260Z,3.20
2022-11-25T14:26:06.100Z,3.20
2022-11-25T14:28:58.483Z,3.20
2022-11-25T14:31:34.513Z,3.20
2022-11-25T14:34:04.226Z,3.30
2022-11-25T14:36:53.719Z,3.40
2022-11-25T14:39:45.985Z,3.30
2022-11-25T14:42:14.703Z,3.70
2022-11-25T14:44:52.574Z,3.30
2022-11-25T14:47:23.891Z,3.30
2022-11-25T14:50:33.849Z,3.30
2022-11-25T14:52:44.642Z,3.20
2022-11-25T14:55:13.968Z,3.30
2022-11-25T14:57:43.823Z,3.30
2022-11-25T15:00:15.626Z,3.40
2022-11-25T15:02:59.845Z,3.40
2022-11-25T15:05:41.038Z,3.40
2022-11-25T15:08:15.038Z,3.40
2022-11-25T15:10:56.207Z,3.40
2022-11-25T15:13:33.036Z,3.30
2022-11-25T15:16:24.094Z,3.40
2022-11-25T15:18:52.075Z,3.30
2022-11-25T15:21:31.989Z,3.30
2022-11-25T15:23:58.729Z,3.30
2022-11-25T15:26:27.467Z,3.40
2022-11-25T15:28:58.791Z,3.40
2022-11-25T15:31:32.169Z,3.40
2022-11-25T15:34:03.572Z,3.40
2022-11-25T15:39:13.325Z,3.40
2022-11-25T15:41:42.610Z,5.00
2022-11-25T15:44:25.274Z,3.40
2022-11-25T15:47:00.958Z,3.70
2022-11-25T15:51:58.119Z,3.50
2022-11-25T15:54:39.447Z,3.40
2022-11-25T15:57:37.308Z,3.70
2022-11-25T16:00:17.315Z,3.20
2022-11-25T16:05:14.529Z,3.50
2022-11-25T16:07:52.703Z,3.50
2022-11-25T16:10:27.672Z,3.40
2022-11-25T16:13:28.137Z,3.40
2022-11-25T16:16:20.719Z,3.40
2022-11-25T16:19:05.010Z,3.40
2022-11-25T16:21:39.774Z,3.50
2022-11-25T16:26:36.950Z,3.50
2022-11-25T16:29:14.466Z,3.50
2022-11-25T16:34:19.053Z,3.10
2022-11-25T16:39:17.782Z,3.50
2022-11-25T16:41:57.384Z,3.50
2022-11-25T16:46:53.868Z,3.50
2022-11-25T16:51:50.705Z,3.60
2022-11-25T16:56:49.981Z,3.60
2022-11-25T16:59:32.011Z,3.60
2022-11-25T17:07:31.165Z,3.60
2022-11-25T17:12:17.096Z,3.60
2022-11-25T17:22:25.226Z,3.60
2022-11-25T17:27:25.717Z,3.60
2022-11-25T17:37:18.451Z,3.60
2022-11-25T17:42:14.191Z,3.60
2022-11-25T17:44:42.241Z,4.70
2022-11-25T17:47:17.213Z,3.50
2022-11-25T17:52:13.638Z,3.50
2022-11-25T17:54:40.658Z,3.50
2022-11-25T17:57:07.753Z,3.40
2022-11-25T17:59:39.244Z,3.40
2022-11-25T18:02:21.029Z,3.40
2022-11-25T18:04:48.008Z,3.40
2022-11-25T18:07:14.883Z,3.40
2022-11-25T18:09:41.749Z,3.40
2022-11-25T18:12:12.954Z,3.40
2022-11-25T18:14:42.826Z,3.40
2022-11-25T18:17:15.907Z,3.40
2022-11-25T18:19:48.655Z,3.40
2022-11-25T18:22:18.963Z,3.40
2022-11-25T18:24:45.919Z,3.40
2022-11-25T18:27:28.862Z,3.40
2022-11-25T18:29:55.798Z,3.40
2022-11-25T18:32:23.595Z,3.40
2022-11-25T18:34:50.536Z,3.40
2022-11-25T18:37:17.299Z,3.40
2022-11-25T18:39:44.019Z,3.30
2022-11-25T18:42:23.193Z,3.30
2022-11-25T18:44:54.645Z,3.30
2022-11-25T18:47:21.345Z,3.30
2022-11-25T18:49:53.874Z,3.40
2022-11-25T18:52:22.568Z,3.30
2022-11-25T18:54:49.702Z,3.30
2022-11-25T18:57:16.458Z,3.30
2022-11-25T18:59:43.172Z,3.30
2022-11-25T19:02:19.099Z,3.30
2022-11-25T19:04:48.078Z,3.30
2022-11-25T19:07:14.805Z,3.20
2022-11-25T19:09:43.762Z,3.20
2022-11-25T19:12:13.537Z,3.30
2022-11-25T19:14:41.727Z,3.30
2022-11-25T19:17:10.233Z,3.30
2022-11-25T19:19:39.319Z,3.30
2022-11-25T19:22:13.779Z,3.30
2022-11-25T19:24:40.567Z,3.30
2022-11-25T19:27:17.446Z,3.30
2022-11-25T19:29:44.253Z,3.30
2022-11-25T19:34:44.915Z,3.40
2022-11-25T19:37:16.414Z,3.40
2022-11-25T19:39:43.122Z,3.40
2022-11-25T19:44:40.407Z,3.50
2022-11-25T19:47:16.689Z,3.50
2022-11-25T19:49:43.466Z,3.50
2022-11-25T19:52:17.814Z,3.60
2022-11-25T19:54:46.667Z,3.50
2022-11-25T19:57:22.186Z,3.50
2022-11-25T19:59:48.957Z,3.50
2022-11-25T20:02:23.274Z,3.50
2022-11-25T20:04:51.421Z,3.50
2022-11-25T20:07:19.060Z,3.50
2022-11-25T20:09:47.973Z,3.50
2022-11-25T20:12:22.850Z,3.50
2022-11-25T20:17:32.647Z,3.50
2022-11-25T20:20:04.317Z,3.40
2022-11-25T20:22:34.939Z,3.50
2022-11-25T20:25:02.456Z,3.50
2022-11-25T20:27:29.330Z,3.40
2022-11-25T20:29:58.907Z,3.50
2022-11-25T20:32:27.792Z,3.50
2022-11-25T20:34:57.203Z,3.50
2022-11-25T20:37:28.162Z,3.40
2022-11-25T20:39:58.931Z,3.40
2022-11-25T20:42:25.638Z,3.40
2022-11-25T20:44:57.206Z,3.40
2022-11-25T20:47:27.407Z,3.40
2022-11-25T20:49:54.199Z,3.40
2022-11-25T20:52:28.439Z,3.50
2022-11-25T20:54:55.169Z,3.50
2022-11-25T20:57:24.002Z,3.50
2022-11-25T20:59:53.195Z,3.50
2022-11-25T21:02:21.635Z,3.50
2022-11-25T21:04:50.940Z,3.50
2022-11-25T21:07:18.046Z,3.50
2022-11-25T21:09:47.073Z,3.50
2022-11-25T21:12:18.821Z,3.60
2022-11-25T21:14:46.466Z,3.60
2022-11-25T21:17:13.171Z,3.60
2022-11-25T21:19:42.118Z,3.60
2022-11-25T21:22:13.010Z,3.60
2022-11-25T21:24:43.144Z,3.60
2022-11-25T21:27:14.065Z,3.60
2022-11-25T21:37:31.203Z,3.80
2022-11-25T21:47:23.877Z,3.70
2022-11-25T22:02:23.453Z,3.70
2022-11-25T22:22:24.501Z,3.60
2022-11-25T22:27:25.987Z,3.70
2022-11-25T22:34:51.537Z,3.60
2022-11-25T22:37:22.115Z,3.50
2022-11-25T22:39:53.400Z,3.70
2022-11-25T22:47:30.646Z,3.50
2022-11-25T22:52:29.229Z,3.70
2022-11-25T22:54:59.128Z,3.70
2022-11-25T22:59:52.973Z,3.70
2022-11-25T23:02:21.665Z,3.70
2022-11-25T23:04:52.136Z,3.60
2022-11-25T23:07:20.089Z,3.70
2022-11-25T23:14:41.763Z,3.70
2022-11-25T23:17:17.803Z,3.70
2022-11-25T23:24:46.095Z,3.70
2022-11-25T23:27:16.105Z,1.50
2022-11-25T23:29:42.831Z,3.80
2022-11-25T23:32:16.848Z,3.90
2022-11-25T23:34:43.657Z,3.70
2022-11-25T23:37:15.108Z,3.70
2022-11-25T23:39:41.881Z,3.70
2022-11-25T23:42:18.149Z,3.70
2022-11-25T23:44:45.317Z,3.70
2022-11-25T23:47:17.621Z,3.80
2022-11-25T23:49:45.071Z,3.80
2022-11-25T23:52:27.956Z,3.80
2022-11-25T23:54:54.650Z,3.80
2022-11-25T23:57:23.038Z,3.70
2022-11-25T23:59:49.863Z,3.80
